createdAt,value
2023-04-16T00:00:29.465Z,3.37
2023-04-16T00:03:03.564Z,4.83
2023-04-16T00:05:33.669Z,2.67
2023-04-16T00:08:02.391Z,3.40
2023-04-16T00:10:30.843Z,4.27
2023-04-16T00:12:59.343Z,3.90
2023-04-16T00:15:27.888Z,2.73
2023-04-16T00:17:56.371Z,2.67
2023-04-16T00:20:24.820Z,5.40
2023-04-16T00:22:54.560Z,7.37
2023-04-16T00:25:23.156Z,3.87
2023-04-16T00:28:16.469Z,3.27
2023-04-16T00:30:45.016Z,6.00
2023-04-16T00:33:13.468Z,2.70
2023-04-16T00:35:48.063Z,2.40
2023-04-16T00:38:17.915Z,5.27
2023-04-16T00:40:46.453Z,4.77
2023-04-16T00:43:40.735Z,4.37
2023-04-16T00:46:10.218Z,3.47
2023-04-16T00:48:41.862Z,4.77
2023-04-16T00:51:11.759Z,5.57
2023-04-16T00:54:07.864Z,5.97
2023-04-16T00:56:37.508Z,4.70
2023-04-16T00:59:06.244Z,3.73
2023-04-16T01:01:34.823Z,4.73
2023-04-16T01:04:03.795Z,4.90
2023-04-16T01:06:32.524Z,5.30
2023-04-16T01:09:00.913Z,3.30
2023-04-16T01:11:30.913Z,3.30
2023-04-16T01:13:59.376Z,3.27
2023-04-16T01:16:27.832Z,4.83
2023-04-16T01:18:56.359Z,4.20
2023-04-16T01:21:26.564Z,3.50
2023-04-16T01:23:55.019Z,6.20
2023-04-16T01:26:23.465Z,4.17
2023-04-16T01:28:51.983Z,2.97
2023-04-16T01:31:20.451Z,3.40
2023-04-16T01:33:49.039Z,2.90
2023-04-16T01:36:17.613Z,5.10
2023-04-16T01:38:47.565Z,4.27
2023-04-16T01:42:03.506Z,4.87
2023-04-16T01:44:32.025Z,4.57
2023-04-16T01:47:00.569Z,4.73
2023-04-16T01:49:29.188Z,3.33
2023-04-16T01:51:57.705Z,4.17
2023-04-16T01:54:27.570Z,5.53
2023-04-16T01:56:55.999Z,6.37
2023-04-16T01:59:24.576Z,4.57
2023-04-16T02:01:53.154Z,4.57
2023-04-16T02:04:21.684Z,3.27
2023-04-16T02:06:50.314Z,3.80
2023-04-16T02:09:18.765Z,4.80
2023-04-16T02:11:48.690Z,4.83
2023-04-16T02:14:17.202Z,6.03
2023-04-16T02:16:45.759Z,4.67
2023-04-16T02:19:14.306Z,4.20
2023-04-16T02:22:13.404Z,4.83
2023-04-16T02:24:41.856Z,4.90
2023-04-16T02:27:11.670Z,5.03
2023-04-16T02:29:40.610Z,4.97
2023-04-16T02:32:09.243Z,4.27
2023-04-16T02:34:39.946Z,6.53
2023-04-16T02:37:08.471Z,5.20
2023-04-16T02:39:36.904Z,5.50
2023-04-16T02:42:06.811Z,4.87
2023-04-16T02:44:36.576Z,4.20
2023-04-16T02:47:05.003Z,7.03
2023-04-16T02:49:33.493Z,4.10
2023-04-16T02:52:01.916Z,5.77
2023-04-16T02:54:30.335Z,4.43
2023-04-16T02:56:58.844Z,4.70
2023-04-16T02:59:27.339Z,5.50
2023-04-16T03:01:57.278Z,5.53
2023-04-16T03:04:25.935Z,5.97
2023-04-16T03:06:54.411Z,5.70
2023-04-16T03:09:22.816Z,4.67
2023-04-16T03:11:51.304Z,6.73
2023-04-16T03:14:19.727Z,4.73
2023-04-16T03:16:48.262Z,5.67
2023-04-16T03:19:18.159Z,5.10
2023-04-16T03:21:46.590Z,4.20
2023-04-16T03:24:15.245Z,7.53
2023-04-16T03:26:43.802Z,4.83
2023-04-16T03:29:12.236Z,7.63
2023-04-16T03:31:41.571Z,4.30
2023-04-16T03:34:10.084Z,6.10
2023-04-16T03:36:39.901Z,4.87
2023-04-16T03:39:08.595Z,5.80
2023-04-16T03:41:37.362Z,5.03
2023-04-16T03:44:33.853Z,4.77
2023-04-16T03:47:02.358Z,3.90
2023-04-16T03:49:33.173Z,5.70
2023-04-16T03:52:03.353Z,6.40
2023-04-16T03:54:31.806Z,5.50
2023-04-16T03:57:00.279Z,3.50
2023-04-16T03:59:28.709Z,5.03
2023-04-16T04:01:57.242Z,5.27
2023-04-16T04:04:50.801Z,7.20
2023-04-16T04:07:20.686Z,4.87
2023-04-16T04:09:49.225Z,4.87
2023-04-16T04:12:42.400Z,5.53
2023-04-16T04:15:12.441Z,3.77
2023-04-16T04:17:40.962Z,4.93
2023-04-16T04:20:10.873Z,4.77
2023-04-16T04:22:40.699Z,7.37
2023-04-16T04:25:11.366Z,7.60
2023-04-16T04:27:39.897Z,4.60
2023-04-16T04:30:14.233Z,4.43
2023-04-16T04:32:42.805Z,4.90
2023-04-16T04:35:19.475Z,4.17
2023-04-16T04:37:49.539Z,4.77
2023-04-16T04:40:27.297Z,4.40
2023-04-16T04:42:55.814Z,5.13
2023-04-16T04:45:25.660Z,3.47
2023-04-16T04:47:54.367Z,3.73
2023-04-16T04:50:23.367Z,4.10
2023-04-16T04:52:53.170Z,4.47
2023-04-16T04:55:21.944Z,6.73
2023-04-16T04:57:50.709Z,9.30
2023-04-16T05:00:19.255Z,8.57
2023-04-16T05:02:47.858Z,5.93
2023-04-16T05:05:31.831Z,6.30
2023-04-16T05:08:01.759Z,5.60
2023-04-16T05:10:30.227Z,4.93
2023-04-16T05:12:58.772Z,7.83
2023-04-16T05:15:27.215Z,6.47
2023-04-16T05:17:56.206Z,4.00
2023-04-16T05:20:25.196Z,5.87
2023-04-16T05:22:55.382Z,6.33
2023-04-16T05:25:25.492Z,4.33
2023-04-16T05:27:53.910Z,8.43
2023-04-16T05:30:22.389Z,6.53
2023-04-16T05:32:51.734Z,5.40
2023-04-16T05:35:20.477Z,5.63
2023-04-16T05:37:48.931Z,5.60
2023-04-16T05:40:17.481Z,6.50
2023-04-16T05:42:47.409Z,7.27
2023-04-16T05:45:15.897Z,25.27
2023-04-16T05:48:14.205Z,22.87
2023-04-16T05:50:42.770Z,10.70
2023-04-16T05:53:11.348Z,8.87
2023-04-16T05:55:39.818Z,6.93
2023-04-16T05:58:09.651Z,4.97
2023-04-16T06:00:38.247Z,6.00
2023-04-16T06:03:06.890Z,6.83
2023-04-16T06:05:35.555Z,4.87
2023-04-16T06:08:04.039Z,4.77
2023-04-16T06:10:32.503Z,2.60
2023-04-16T06:13:01.062Z,3.63
2023-04-16T06:15:31.185Z,4.37
2023-04-16T06:18:24.510Z,3.23
2023-04-16T06:20:53.159Z,4.00
2023-04-16T06:23:21.720Z,4.07
2023-04-16T06:25:50.187Z,5.23
2023-04-16T06:28:20.122Z,4.53
2023-04-16T06:30:50.004Z,6.13
2023-04-16T06:33:18.539Z,4.87
2023-04-16T06:35:46.958Z,5.03
2023-04-16T06:38:16.481Z,4.80
2023-04-16T06:40:44.985Z,5.83
2023-04-16T06:43:13.531Z,5.63
2023-04-16T06:45:42.028Z,6.63
2023-04-16T06:48:11.844Z,7.63
2023-04-16T06:50:40.499Z,5.80
2023-04-16T06:53:09.076Z,5.03
2023-04-16T06:55:37.473Z,4.10
2023-04-16T06:58:13.178Z,5.23
2023-04-16T07:00:41.670Z,5.00
2023-04-16T07:03:11.694Z,5.57
2023-04-16T07:05:40.450Z,6.53
2023-04-16T07:08:08.984Z,7.40
2023-04-16T07:10:37.491Z,4.40
2023-04-16T07:13:30.440Z,5.97
2023-04-16T07:15:58.952Z,7.30
2023-04-16T07:18:28.775Z,6.00
2023-04-16T07:20:57.434Z,6.00
2023-04-16T07:23:26.031Z,7.30
2023-04-16T07:25:54.691Z,5.40
2023-04-16T07:28:24.578Z,4.77
2023-04-16T07:30:53.170Z,4.13
2023-04-16T07:33:21.646Z,7.30
2023-04-16T07:35:51.764Z,7.43
2023-04-16T07:38:45.579Z,3.43
2023-04-16T07:41:14.782Z,5.47
2023-04-16T07:43:44.316Z,5.70
2023-04-16T07:46:12.835Z,6.57
2023-04-16T07:48:41.295Z,4.90
2023-04-16T07:51:11.224Z,5.80
2023-04-16T07:53:39.708Z,6.40
2023-04-16T07:56:09.234Z,5.87
2023-04-16T07:58:37.796Z,7.90
2023-04-16T08:01:06.459Z,7.63
2023-04-16T08:03:35.382Z,7.37
2023-04-16T08:06:20.657Z,5.83
2023-04-16T08:08:49.208Z,5.50
2023-04-16T08:11:24.620Z,7.17
2023-04-16T08:14:18.002Z,6.27
2023-04-16T08:16:46.475Z,7.87
2023-04-16T08:19:14.960Z,7.00
2023-04-16T08:21:44.900Z,6.43
2023-04-16T08:24:13.442Z,6.33
2023-04-16T08:26:41.899Z,4.67
2023-04-16T08:29:10.626Z,6.67
2023-04-16T08:31:39.490Z,6.17
2023-04-16T08:34:08.134Z,8.17
2023-04-16T08:36:36.537Z,5.73
2023-04-16T08:39:07.372Z,9.37
2023-04-16T08:41:47.569Z,5.87
2023-04-16T08:44:22.659Z,9.47
2023-04-16T08:46:54.863Z,6.97
2023-04-16T08:49:23.689Z,8.20
2023-04-16T08:51:54.343Z,5.57
2023-04-16T08:54:40.543Z,5.57
2023-04-16T08:57:13.664Z,6.37
2023-04-16T08:59:46.935Z,5.20
2023-04-16T09:02:16.504Z,7.13
2023-04-16T09:04:46.633Z,6.87
2023-04-16T09:07:40.353Z,6.83
2023-04-16T09:10:11.813Z,5.50
2023-04-16T09:12:42.316Z,6.33
2023-04-16T09:15:13.644Z,3.87
2023-04-16T09:17:42.418Z,8.70
2023-04-16T09:20:12.639Z,4.43
2023-04-16T09:22:41.533Z,3.77
2023-04-16T09:25:12.472Z,3.23
2023-04-16T09:27:41.305Z,4.20
2023-04-16T09:30:24.417Z,9.70
2023-04-16T09:32:54.549Z,3.67
2023-04-16T09:35:23.295Z,6.60
2023-04-16T09:37:59.046Z,4.53
2023-04-16T09:40:31.246Z,5.20
2023-04-16T09:43:01.409Z,6.20
2023-04-16T09:45:34.070Z,5.10
2023-04-16T09:48:07.014Z,5.60
2023-04-16T09:50:35.590Z,4.63
2023-04-16T09:53:04.870Z,5.67
2023-04-16T09:55:35.338Z,7.97
2023-04-16T09:58:04.224Z,4.60
2023-04-16T10:00:32.759Z,5.17
2023-04-16T10:03:08.146Z,4.93
2023-04-16T10:06:27.232Z,3.60
2023-04-16T10:08:57.327Z,4.53
2023-04-16T10:11:27.361Z,5.53
2023-04-16T10:13:55.830Z,4.23
2023-04-16T10:16:24.392Z,5.83
2023-04-16T10:18:54.169Z,5.37
2023-04-16T10:21:23.983Z,3.00
2023-04-16T10:23:53.960Z,3.83
2023-04-16T10:26:31.651Z,2.73
2023-04-16T10:29:01.204Z,2.87
2023-04-16T10:31:30.418Z,3.83
2023-04-16T10:34:00.781Z,4.40
2023-04-16T10:36:29.231Z,4.70
2023-04-16T10:39:00.991Z,5.37
2023-04-16T10:41:33.873Z,4.03
2023-04-16T10:44:10.557Z,6.30
2023-04-16T10:46:40.831Z,2.47
2023-04-16T10:49:36.955Z,3.60
2023-04-16T10:52:12.882Z,2.30
2023-04-16T10:54:42.384Z,1.97
2023-04-16T10:57:18.771Z,2.30
2023-04-16T10:59:49.712Z,5.60
2023-04-16T11:02:20.004Z,3.10
2023-04-16T11:04:50.116Z,4.03
2023-04-16T11:07:36.099Z,6.03
2023-04-16T11:10:07.360Z,2.37
2023-04-16T11:12:39.343Z,3.43
2023-04-16T11:15:10.743Z,3.07
2023-04-16T11:18:04.039Z,3.00
2023-04-16T11:20:33.026Z,3.97
2023-04-16T11:23:01.484Z,2.60
2023-04-16T11:25:34.220Z,4.37
2023-04-16T11:28:04.252Z,4.63
2023-04-16T11:30:35.518Z,4.33
2023-04-16T11:33:04.588Z,3.70
2023-04-16T11:35:33.420Z,2.60
2023-04-16T11:38:02.355Z,3.00
2023-04-16T11:40:32.286Z,7.90
2023-04-16T11:43:06.030Z,4.37
2023-04-16T11:45:34.585Z,3.73
2023-04-16T11:48:03.103Z,5.10
2023-04-16T11:50:31.697Z,3.00
2023-04-16T11:53:06.727Z,5.27
2023-04-16T11:55:45.379Z,4.47
2023-04-16T11:58:17.146Z,5.37
2023-04-16T12:00:46.177Z,2.90
2023-04-16T12:03:14.800Z,3.70
2023-04-16T12:05:43.435Z,6.40
2023-04-16T12:08:13.369Z,3.70
2023-04-16T12:10:56.733Z,4.07
2023-04-16T12:13:26.590Z,7.57
2023-04-16T12:15:57.104Z,4.63
2023-04-16T12:18:27.759Z,4.57
2023-04-16T12:20:56.438Z,2.57
2023-04-16T12:23:26.995Z,2.60
2023-04-16T12:25:56.245Z,7.23
2023-04-16T12:28:35.132Z,3.27
2023-04-16T12:31:11.789Z,4.60
2023-04-16T12:33:40.366Z,4.10
2023-04-16T12:36:19.772Z,6.03
2023-04-16T12:38:48.218Z,2.37
2023-04-16T12:41:17.044Z,2.97
2023-04-16T12:43:46.914Z,4.10
2023-04-16T12:46:15.439Z,2.87
2023-04-16T12:48:44.031Z,3.53
2023-04-16T12:51:12.531Z,4.87
2023-04-16T12:53:41.160Z,2.93
2023-04-16T12:56:09.578Z,3.27
2023-04-16T12:58:38.144Z,3.93
2023-04-16T13:01:07.962Z,6.17
2023-04-16T13:03:37.231Z,4.87
2023-04-16T13:06:06.279Z,3.97
2023-04-16T13:08:34.716Z,5.17
2023-04-16T13:11:03.402Z,4.23
2023-04-16T13:13:32.072Z,3.67
2023-04-16T13:16:00.609Z,3.80
2023-04-16T13:18:30.877Z,1.93
2023-04-16T13:20:59.944Z,3.80
2023-04-16T13:23:28.535Z,2.63
2023-04-16T13:25:57.022Z,2.73
2023-04-16T13:28:25.588Z,4.03
2023-04-16T13:30:55.209Z,6.67
2023-04-16T13:33:23.747Z,3.43
2023-04-16T13:35:53.760Z,4.13
2023-04-16T13:38:22.243Z,4.27
2023-04-16T13:40:50.698Z,1.93
2023-04-16T13:43:19.483Z,2.30
2023-04-16T13:45:47.982Z,3.67
2023-04-16T13:48:17.887Z,1.83
2023-04-16T13:50:46.433Z,1.30
2023-04-16T13:53:28.112Z,2.73
2023-04-16T13:55:56.585Z,1.80
2023-04-16T13:58:25.062Z,1.93
2023-04-16T14:00:53.564Z,2.07
2023-04-16T14:03:22.133Z,1.83
2023-04-16T14:05:50.771Z,1.97
2023-04-16T14:08:21.286Z,2.77
2023-04-16T14:10:51.693Z,3.77
2023-04-16T14:13:20.251Z,2.80
2023-04-16T14:15:48.957Z,3.53
2023-04-16T14:18:17.451Z,2.67
2023-04-16T14:20:46.148Z,2.67
2023-04-16T14:23:14.657Z,3.93
2023-04-16T14:25:43.250Z,2.57
2023-04-16T14:28:15.526Z,2.67
2023-04-16T14:30:44.229Z,2.30
2023-04-16T14:33:12.693Z,3.87
2023-04-16T14:35:41.212Z,2.13
2023-04-16T14:38:09.759Z,4.50
2023-04-16T14:40:38.244Z,7.67
2023-04-16T14:43:06.681Z,11.33
2023-04-16T14:45:39.185Z,10.43
2023-04-16T14:48:07.751Z,18.67
2023-04-16T14:50:38.147Z,11.47
2023-04-16T14:53:06.785Z,16.17
2023-04-16T14:55:35.407Z,23.53
2023-04-16T14:58:04.109Z,15.70
2023-04-16T15:00:33.843Z,11.27
2023-04-16T15:03:03.874Z,12.10
2023-04-16T15:05:32.690Z,8.50
2023-04-16T15:08:01.593Z,10.50
2023-04-16T15:10:30.242Z,24.40
2023-04-16T15:12:58.640Z,10.33
2023-04-16T15:15:27.095Z,8.67
2023-04-16T15:17:57.008Z,9.03
2023-04-16T15:20:27.111Z,5.40
2023-04-16T15:22:55.669Z,9.17
2023-04-16T15:25:25.789Z,5.40
2023-04-16T15:27:54.453Z,6.47
2023-04-16T15:30:22.874Z,7.57
2023-04-16T15:32:51.398Z,9.13
2023-04-16T15:35:19.901Z,5.90
2023-04-16T15:37:50.693Z,5.03
2023-04-16T15:40:20.597Z,5.20
2023-04-16T15:42:49.280Z,3.13
2023-04-16T15:45:18.052Z,3.47
2023-04-16T15:47:50.982Z,4.13
2023-04-16T15:50:20.046Z,3.13
2023-04-16T15:52:50.222Z,2.30
2023-04-16T15:55:20.127Z,3.53
2023-04-16T15:57:48.585Z,3.07
2023-04-16T16:00:17.599Z,2.90
2023-04-16T16:02:48.465Z,2.47
2023-04-16T16:05:17.659Z,3.87
2023-04-16T16:07:46.510Z,2.60
2023-04-16T16:10:16.980Z,8.30
2023-04-16T16:12:46.510Z,4.43
2023-04-16T16:15:15.346Z,3.90
2023-04-16T16:17:43.807Z,3.13
2023-04-16T16:20:13.026Z,3.53
2023-04-16T16:22:45.231Z,5.07
2023-04-16T16:25:15.070Z,4.33
2023-04-16T16:27:43.524Z,4.00
2023-04-16T16:30:13.383Z,3.40
2023-04-16T16:32:43.802Z,6.80
2023-04-16T16:35:12.904Z,4.23
2023-04-16T16:37:41.374Z,6.00
2023-04-16T16:40:11.294Z,7.13
2023-04-16T16:42:41.099Z,5.47
2023-04-16T16:45:11.589Z,4.50
2023-04-16T16:47:40.089Z,4.50
2023-04-16T16:50:11.462Z,4.23
2023-04-16T16:52:40.108Z,6.80
2023-04-16T16:55:11.109Z,5.63
2023-04-16T16:57:41.283Z,5.70
2023-04-16T17:00:14.870Z,6.17
2023-04-16T17:02:43.917Z,8.00
2023-04-16T17:05:13.125Z,5.00
2023-04-16T17:07:41.663Z,4.57
2023-04-16T17:10:13.146Z,5.83
2023-04-16T17:12:43.177Z,7.13
2023-04-16T17:15:12.659Z,11.13
2023-04-16T17:17:41.252Z,9.07
2023-04-16T17:20:12.215Z,7.37
2023-04-16T17:22:41.188Z,4.57
2023-04-16T17:25:10.638Z,4.90
2023-04-16T17:27:42.023Z,4.40
2023-04-16T17:30:12.760Z,5.20
2023-04-16T17:32:41.312Z,5.77
2023-04-16T17:35:11.275Z,6.77
2023-04-16T17:37:39.726Z,6.87
2023-04-16T17:40:10.093Z,6.00
2023-04-16T17:42:38.858Z,9.20
2023-04-16T17:45:08.761Z,6.57
2023-04-16T17:47:39.089Z,7.33
2023-04-16T17:50:09.573Z,11.20
2023-04-16T17:52:58.119Z,11.60
2023-04-16T17:55:27.093Z,9.93
2023-04-16T17:57:55.498Z,9.07
2023-04-16T18:00:24.378Z,9.70
2023-04-16T18:02:56.708Z,7.67
2023-04-16T18:05:25.863Z,6.53
2023-04-16T18:07:55.445Z,6.50
2023-04-16T18:10:24.224Z,5.80
2023-04-16T18:12:52.744Z,6.87
2023-04-16T18:15:21.473Z,5.93
2023-04-16T18:17:49.910Z,6.27
2023-04-16T18:20:19.906Z,4.93
2023-04-16T18:22:48.348Z,5.77
2023-04-16T18:25:16.969Z,6.83
2023-04-16T18:27:45.754Z,6.33
2023-04-16T18:30:22.960Z,7.53
2023-04-16T18:33:25.151Z,10.70
2023-04-16T18:35:44.622Z,10.77
2023-04-16T18:38:13.631Z,11.57
2023-04-16T18:40:42.266Z,28.30
2023-04-16T18:43:10.728Z,67.57
2023-04-16T18:48:08.382Z,39.43
2023-04-16T18:50:36.968Z,21.87
2023-04-16T18:53:06.786Z,16.53
2023-04-16T18:55:35.276Z,8.17
2023-04-16T18:58:03.724Z,8.33
2023-04-16T19:00:32.295Z,5.67
2023-04-16T19:03:00.861Z,6.20
2023-04-16T19:05:29.347Z,7.90
2023-04-16T19:07:57.835Z,5.90
2023-04-16T19:10:27.772Z,7.87
2023-04-16T19:12:57.950Z,7.90
2023-04-16T19:15:27.424Z,9.03
2023-04-16T19:17:57.769Z,7.17
2023-04-16T19:20:26.216Z,7.97
2023-04-16T19:22:54.770Z,10.70
2023-04-16T19:25:23.313Z,7.23
2023-04-16T19:27:53.116Z,8.63
2023-04-16T19:30:21.732Z,8.23
2023-04-16T19:32:50.558Z,12.80
2023-04-16T19:35:19.094Z,11.13
2023-04-16T19:37:47.523Z,9.23
2023-04-16T19:40:16.026Z,7.40
2023-04-16T19:42:45.523Z,7.03
2023-04-16T19:45:15.753Z,7.43
2023-04-16T19:47:44.233Z,11.30
2023-04-16T19:50:13.136Z,12.43
2023-04-16T19:52:41.547Z,14.80
2023-04-16T19:55:10.861Z,15.57
2023-04-16T19:57:39.388Z,11.30
2023-04-16T20:00:11.296Z,65.23
2023-04-16T20:02:41.327Z,33.30
2023-04-16T20:05:11.206Z,15.43
2023-04-16T20:07:39.677Z,13.67
2023-04-16T20:10:09.227Z,15.57
2023-04-16T20:12:37.840Z,10.63
2023-04-16T20:15:07.854Z,12.53
2023-04-16T20:17:36.312Z,9.90
2023-04-16T20:20:10.107Z,7.43
2023-04-16T20:22:38.747Z,13.83
2023-04-16T20:25:09.059Z,20.80
2023-04-16T20:27:37.702Z,17.17
2023-04-16T20:30:07.701Z,22.20
2023-04-16T20:32:36.133Z,20.40
2023-04-16T20:35:10.634Z,22.40
2023-04-16T20:37:42.233Z,22.47
2023-04-16T20:40:13.887Z,20.17
2023-04-16T20:42:46.390Z,15.63
2023-04-16T20:45:15.554Z,9.63
2023-04-16T20:47:44.584Z,11.03
2023-04-16T20:50:14.764Z,8.50
2023-04-16T20:52:43.338Z,8.57
2023-04-16T20:55:11.805Z,10.47
2023-04-16T20:57:40.368Z,6.80
2023-04-16T21:00:10.874Z,4.53
2023-04-16T21:02:39.581Z,6.97
2023-04-16T21:05:10.532Z,10.53
2023-04-16T21:07:40.456Z,7.93
2023-04-16T21:10:10.890Z,7.23
2023-04-16T21:12:39.314Z,6.03
2023-04-16T21:15:09.087Z,6.53
2023-04-16T21:17:37.561Z,6.57
2023-04-16T21:20:10.642Z,5.83
2023-04-16T21:22:40.480Z,5.20
2023-04-16T21:25:10.719Z,5.83
2023-04-16T21:27:39.212Z,5.67
2023-04-16T21:30:09.751Z,5.93
2023-04-16T21:32:38.251Z,5.97
2023-04-16T21:35:36.345Z,5.27
2023-04-16T21:38:06.148Z,5.60
2023-04-16T21:40:34.672Z,5.50
2023-04-16T21:43:03.268Z,5.10
2023-04-16T21:45:32.209Z,5.20
2023-04-16T21:48:00.689Z,5.07
2023-04-16T21:50:29.249Z,6.47
2023-04-16T21:52:57.666Z,5.43
2023-04-16T21:55:27.474Z,5.13
2023-04-16T21:57:55.905Z,5.73
2023-04-16T22:00:24.793Z,6.07
2023-04-16T22:02:55.830Z,6.40
2023-04-16T22:05:24.487Z,3.60
2023-04-16T22:07:54.056Z,5.63
2023-04-16T22:10:22.741Z,4.77
2023-04-16T22:12:53.673Z,4.93
2023-04-16T22:15:22.504Z,4.67
2023-04-16T22:17:51.784Z,5.13
2023-04-16T22:20:20.369Z,4.93
2023-04-16T22:22:49.097Z,5.50
2023-04-16T22:25:17.544Z,5.43
2023-04-16T22:27:45.968Z,4.80
2023-04-16T22:30:16.428Z,6.37
2023-04-16T22:32:45.054Z,5.13
2023-04-16T22:35:38.353Z,5.20
2023-04-16T22:38:07.750Z,5.23
2023-04-16T22:40:36.393Z,6.33
2023-04-16T22:43:04.888Z,6.63
2023-04-16T22:45:34.753Z,5.37
2023-04-16T22:48:03.259Z,5.93
2023-04-16T22:50:32.617Z,6.90
2023-04-16T22:53:09.170Z,5.10
2023-04-16T22:55:37.742Z,6.30
2023-04-16T22:58:06.170Z,5.33
2023-04-16T23:00:36.153Z,5.50
2023-04-16T23:03:04.681Z,6.10
2023-04-16T23:05:33.840Z,5.30
2023-04-16T23:08:02.669Z,6.87
2023-04-16T23:10:31.129Z,6.10
2023-04-16T23:13:02.650Z,7.77
2023-04-16T23:15:31.226Z,7.07
2023-04-16T23:18:01.328Z,6.97
2023-04-16T23:20:30.706Z,5.93
2023-04-16T23:22:59.181Z,5.53
2023-04-16T23:25:27.655Z,7.23
2023-04-16T23:27:56.737Z,8.17
2023-04-16T23:30:25.184Z,8.40
2023-04-16T23:32:53.647Z,6.40
2023-04-16T23:35:23.746Z,5.47
2023-04-16T23:37:52.179Z,8.57
2023-04-16T23:40:20.663Z,8.27
2023-04-16T23:42:49.130Z,8.93
2023-04-16T23:45:17.848Z,6.60
2023-04-16T23:47:47.003Z,7.63
2023-04-16T23:50:15.525Z,11.83
2023-04-16T23:52:45.338Z,10.60
2023-04-16T23:55:13.783Z,7.63
2023-04-16T23:57:42.257Z,12.97
